sensor_id;sensor_type;location;lat;lon;timestamp;P1;durP1;ratioP1;P2;durP2;ratioP2
9948;SDS011;5013;51.840;8.276;2023-04-03T00:00:30;4.10;;;1.93;;
9948;SDS011;5013;51.840;8.276;2023-04-03T00:02:56;4.63;;;2.03;;
9948;SDS011;5013;51.840;8.276;2023-04-03T00:05:22;7.30;;;1.93;;
9948;SDS011;5013;51.840;8.276;2023-04-03T00:07:47;8.30;;;2.23;;
9948;SDS011;5013;51.840;8.276;2023-04-03T00:10:14;4.37;;;1.90;;
9948;SDS011;5013;51.840;8.276;2023-04-03T00:12:40;3.63;;;2.37;;
9948;SDS011;5013;51.840;8.276;2023-04-03T00:15:06;3.00;;;2.30;;
9948;SDS011;5013;51.840;8.276;2023-04-03T00:17:32;8.47;;;2.10;;
9948;SDS011;5013;51.840;8.276;2023-04-03T00:19:57;7.00;;;2.23;;
9948;SDS011;5013;51.840;8.276;2023-04-03T00:22:23;6.43;;;2.57;;
9948;SDS011;5013;51.840;8.276;2023-04-03T00:24:48;5.23;;;2.57;;
9948;SDS011;5013;51.840;8.276;2023-04-03T00:27:14;4.33;;;2.40;;
9948;SDS011;5013;51.840;8.276;2023-04-03T00:29:40;8.33;;;2.87;;
9948;SDS011;5013;51.840;8.276;2023-04-03T00:32:06;2.97;;;2.50;;
9948;SDS011;5013;51.840;8.276;2023-04-03T00:34:31;4.23;;;2.20;;
9948;SDS011;5013;51.840;8.276;2023-04-03T00:36:57;5.47;;;2.30;;
9948;SDS011;5013;51.840;8.276;2023-04-03T00:39:23;5.73;;;2.07;;
9948;SDS011;5013;51.840;8.276;2023-04-03T00:41:48;6.13;;;2.40;;
9948;SDS011;5013;51.840;8.276;2023-04-03T00:44:21;4.37;;;2.33;;
9948;SDS011;5013;51.840;8.276;2023-04-03T00:47:07;2.23;;;2.03;;
9948;SDS011;5013;51.840;8.276;2023-04-03T00:49:35;6.57;;;1.93;;
9948;SDS011;5013;51.840;8.276;2023-04-03T00:52:03;3.80;;;2.43;;
9948;SDS011;5013;51.840;8.276;2023-04-03T00:54:32;4.50;;;2.43;;
9948;SDS011;5013;51.840;8.276;2023-04-03T00:56:59;5.07;;;2.50;;
9948;SDS011;5013;51.840;8.276;2023-04-03T00:59:27;7.63;;;2.43;;
9948;SDS011;5013;51.840;8.276;2023-04-03T01:01:58;6.50;;;2.40;;
9948;SDS011;5013;51.840;8.276;2023-04-03T01:04:29;5.73;;;2.23;;
9948;SDS011;5013;51.840;8.276;2023-04-03T01:06:58;7.93;;;2.37;;
9948;SDS011;5013;51.840;8.276;2023-04-03T01:09:30;3.60;;;2.00;;
9948;SDS011;5013;51.840;8.276;2023-04-03T01:12:20;2.63;;;2.17;;
9948;SDS011;5013;51.840;8.276;2023-04-03T01:14:58;2.43;;;2.23;;
9948;SDS011;5013;51.840;8.276;2023-04-03T01:25:16;4.50;;;2.30;;
9948;SDS011;5013;51.840;8.276;2023-04-03T01:27:42;7.50;;;2.10;;
9948;SDS011;5013;51.840;8.276;2023-04-03T01:30:08;5.17;;;2.53;;
9948;SDS011;5013;51.840;8.276;2023-04-03T01:32:34;6.67;;;2.27;;
9948;SDS011;5013;51.840;8.276;2023-04-03T01:35:00;4.10;;;2.47;;
9948;SDS011;5013;51.840;8.276;2023-04-03T01:37:25;5.50;;;2.43;;
9948;SDS011;5013;51.840;8.276;2023-04-03T01:39:51;6.87;;;2.73;;
9948;SDS011;5013;51.840;8.276;2023-04-03T01:42:16;4.53;;;2.00;;
9948;SDS011;5013;51.840;8.276;2023-04-03T01:44:42;5.03;;;2.10;;
9948;SDS011;5013;51.840;8.276;2023-04-03T01:47:08;4.60;;;2.50;;
9948;SDS011;5013;51.840;8.276;2023-04-03T01:49:34;3.43;;;1.90;;
9948;SDS011;5013;51.840;8.276;2023-04-03T01:51:59;4.33;;;2.40;;
9948;SDS011;5013;51.840;8.276;2023-04-03T01:54:25;6.43;;;2.27;;
9948;SDS011;5013;51.840;8.276;2023-04-03T01:56:50;5.27;;;2.30;;
9948;SDS011;5013;51.840;8.276;2023-04-03T01:59:17;4.27;;;1.97;;
9948;SDS011;5013;51.840;8.276;2023-04-03T02:01:44;3.47;;;1.93;;
9948;SDS011;5013;51.840;8.276;2023-04-03T02:04:10;4.50;;;2.00;;
9948;SDS011;5013;51.840;8.276;2023-04-03T02:06:36;3.63;;;1.93;;
9948;SDS011;5013;51.840;8.276;2023-04-03T02:09:02;6.63;;;2.07;;
9948;SDS011;5013;51.840;8.276;2023-04-03T02:11:29;4.67;;;2.43;;
9948;SDS011;5013;51.840;8.276;2023-04-03T02:13:55;4.73;;;2.50;;
9948;SDS011;5013;51.840;8.276;2023-04-03T02:16:20;4.37;;;2.63;;
9948;SDS011;5013;51.840;8.276;2023-04-03T02:18:46;3.67;;;2.33;;
9948;SDS011;5013;51.840;8.276;2023-04-03T02:21:11;2.37;;;1.83;;
9948;SDS011;5013;51.840;8.276;2023-04-03T02:23:37;4.10;;;1.90;;
9948;SDS011;5013;51.840;8.276;2023-04-03T02:26:03;4.50;;;1.90;;
9948;SDS011;5013;51.840;8.276;2023-04-03T02:28:33;5.87;;;2.00;;
9948;SDS011;5013;51.840;8.276;2023-04-03T02:30:59;6.60;;;2.07;;
9948;SDS011;5013;51.840;8.276;2023-04-03T02:33:25;5.73;;;2.90;;
9948;SDS011;5013;51.840;8.276;2023-04-03T02:35:54;3.60;;;2.60;;
9948;SDS011;5013;51.840;8.276;2023-04-03T02:38:20;4.03;;;2.30;;
9948;SDS011;5013;51.840;8.276;2023-04-03T02:40:47;6.60;;;2.47;;
9948;SDS011;5013;51.840;8.276;2023-04-03T02:43:12;3.47;;;2.07;;
9948;SDS011;5013;51.840;8.276;2023-04-03T02:45:38;5.90;;;2.70;;
9948;SDS011;5013;51.840;8.276;2023-04-03T02:48:04;6.33;;;2.50;;
9948;SDS011;5013;51.840;8.276;2023-04-03T02:50:29;4.00;;;2.27;;
9948;SDS011;5013;51.840;8.276;2023-04-03T02:52:55;6.93;;;2.27;;
9948;SDS011;5013;51.840;8.276;2023-04-03T02:55:21;9.17;;;2.70;;
9948;SDS011;5013;51.840;8.276;2023-04-03T02:57:46;4.20;;;2.13;;
9948;SDS011;5013;51.840;8.276;2023-04-03T03:00:12;4.83;;;1.83;;
9948;SDS011;5013;51.840;8.276;2023-04-03T03:02:38;6.53;;;2.73;;
9948;SDS011;5013;51.840;8.276;2023-04-03T03:05:04;7.60;;;2.40;;
9948;SDS011;5013;51.840;8.276;2023-04-03T03:07:29;8.13;;;2.70;;
9948;SDS011;5013;51.840;8.276;2023-04-03T03:09:55;6.17;;;2.03;;
9948;SDS011;5013;51.840;8.276;2023-04-03T03:12:20;4.30;;;2.40;;
9948;SDS011;5013;51.840;8.276;2023-04-03T03:14:47;4.70;;;2.40;;
9948;SDS011;5013;51.840;8.276;2023-04-03T03:17:13;7.03;;;2.50;;
9948;SDS011;5013;51.840;8.276;2023-04-03T03:19:38;4.23;;;2.10;;
9948;SDS011;5013;51.840;8.276;2023-04-03T03:22:04;8.03;;;2.60;;
9948;SDS011;5013;51.840;8.276;2023-04-03T03:24:30;4.17;;;2.00;;
9948;SDS011;5013;51.840;8.276;2023-04-03T03:26:55;5.33;;;2.10;;
9948;SDS011;5013;51.840;8.276;2023-04-03T03:29:21;5.63;;;2.27;;
9948;SDS011;5013;51.840;8.276;2023-04-03T03:31:47;4.83;;;2.33;;
9948;SDS011;5013;51.840;8.276;2023-04-03T03:34:12;12.87;;;2.50;;
9948;SDS011;5013;51.840;8.276;2023-04-03T03:36:38;5.83;;;2.20;;
9948;SDS011;5013;51.840;8.276;2023-04-03T03:39:04;5.40;;;2.40;;
9948;SDS011;5013;51.840;8.276;2023-04-03T03:41:30;6.67;;;2.47;;
9948;SDS011;5013;51.840;8.276;2023-04-03T03:43:56;2.43;;;2.17;;
9948;SDS011;5013;51.840;8.276;2023-04-03T03:46:22;5.00;;;2.40;;
9948;SDS011;5013;51.840;8.276;2023-04-03T03:48:47;7.47;;;2.43;;
9948;SDS011;5013;51.840;8.276;2023-04-03T03:51:13;2.93;;;2.07;;
9948;SDS011;5013;51.840;8.276;2023-04-03T03:53:38;5.07;;;2.37;;
9948;SDS011;5013;51.840;8.276;2023-04-03T03:56:05;3.00;;;2.30;;
9948;SDS011;5013;51.840;8.276;2023-04-03T03:58:31;5.80;;;2.27;;
9948;SDS011;5013;51.840;8.276;2023-04-03T04:00:59;3.63;;;2.40;;
9948;SDS011;5013;51.840;8.276;2023-04-03T04:03:26;5.03;;;2.53;;
9948;SDS011;5013;51.840;8.276;2023-04-03T04:05:52;5.77;;;2.13;;
9948;SDS011;5013;51.840;8.276;2023-04-03T04:08:18;3.23;;;2.23;;
9948;SDS011;5013;51.840;8.276;2023-04-03T04:10:43;4.50;;;2.30;;
9948;SDS011;5013;51.840;8.276;2023-04-03T04:13:09;9.20;;;3.43;;
9948;SDS011;5013;51.840;8.276;2023-04-03T04:15:34;7.40;;;2.87;;
9948;SDS011;5013;51.840;8.276;2023-04-03T04:18:00;4.83;;;2.73;;
9948;SDS011;5013;51.840;8.276;2023-04-03T04:20:25;6.33;;;2.57;;
9948;SDS011;5013;51.840;8.276;2023-04-03T04:22:51;7.67;;;2.70;;
9948;SDS011;5013;51.840;8.276;2023-04-03T04:25:16;6.27;;;2.60;;
9948;SDS011;5013;51.840;8.276;2023-04-03T04:27:42;5.23;;;2.07;;
9948;SDS011;5013;51.840;8.276;2023-04-03T04:30:08;5.33;;;2.90;;
9948;SDS011;5013;51.840;8.276;2023-04-03T04:32:34;5.00;;;2.50;;
9948;SDS011;5013;51.840;8.276;2023-04-03T04:35:00;7.93;;;3.17;;
9948;SDS011;5013;51.840;8.276;2023-04-03T04:37:26;8.13;;;2.17;;
9948;SDS011;5013;51.840;8.276;2023-04-03T04:39:51;4.17;;;2.10;;
9948;SDS011;5013;51.840;8.276;2023-04-03T04:42:17;9.37;;;2.67;;
9948;SDS011;5013;51.840;8.276;2023-04-03T04:44:42;5.97;;;2.30;;
9948;SDS011;5013;51.840;8.276;2023-04-03T04:47:08;8.40;;;2.60;;
9948;SDS011;5013;51.840;8.276;2023-04-03T04:49:34;5.27;;;2.33;;
9948;SDS011;5013;51.840;8.276;2023-04-03T04:51:59;7.13;;;2.57;;
9948;SDS011;5013;51.840;8.276;2023-04-03T04:54:25;4.47;;;2.30;;
9948;SDS011;5013;51.840;8.276;2023-04-03T04:56:51;6.43;;;2.37;;
9948;SDS011;5013;51.840;8.276;2023-04-03T04:59:16;8.03;;;2.70;;
9948;SDS011;5013;51.840;8.276;2023-04-03T05:01:42;3.70;;;2.07;;
9948;SDS011;5013;51.840;8.276;2023-04-03T05:04:07;6.53;;;3.17;;
9948;SDS011;5013;51.840;8.276;2023-04-03T05:06:34;10.27;;;3.23;;
9948;SDS011;5013;51.840;8.276;2023-04-03T05:09:00;4.87;;;2.50;;
9948;SDS011;5013;51.840;8.276;2023-04-03T05:11:26;5.10;;;2.33;;
9948;SDS011;5013;51.840;8.276;2023-04-03T05:13:51;10.13;;;2.33;;
9948;SDS011;5013;51.840;8.276;2023-04-03T05:16:17;4.83;;;2.60;;
9948;SDS011;5013;51.840;8.276;2023-04-03T05:18:43;4.37;;;2.07;;
9948;SDS011;5013;51.840;8.276;2023-04-03T05:21:08;5.97;;;2.33;;
9948;SDS011;5013;51.840;8.276;2023-04-03T05:23:34;6.17;;;2.37;;
9948;SDS011;5013;51.840;8.276;2023-04-03T05:25:59;10.33;;;2.57;;
9948;SDS011;5013;51.840;8.276;2023-04-03T05:28:25;4.07;;;2.00;;
9948;SDS011;5013;51.840;8.276;2023-04-03T05:30:54;6.83;;;2.63;;
9948;SDS011;5013;51.840;8.276;2023-04-03T05:33:24;7.33;;;2.57;;
9948;SDS011;5013;51.840;8.276;2023-04-03T05:35:51;6.70;;;2.50;;
9948;SDS011;5013;51.840;8.276;2023-04-03T05:38:17;4.17;;;2.60;;
9948;SDS011;5013;51.840;8.276;2023-04-03T05:40:43;3.17;;;2.27;;
9948;SDS011;5013;51.840;8.276;2023-04-03T05:43:09;7.90;;;2.93;;
9948;SDS011;5013;51.840;8.276;2023-04-03T05:45:35;7.80;;;2.70;;
9948;SDS011;5013;51.840;8.276;2023-04-03T05:48:01;7.50;;;4.77;;
9948;SDS011;5013;51.840;8.276;2023-04-03T05:50:26;6.57;;;2.57;;
9948;SDS011;5013;51.840;8.276;2023-04-03T05:52:53;4.20;;;2.60;;
9948;SDS011;5013;51.840;8.276;2023-04-03T05:55:22;7.27;;;2.33;;
9948;SDS011;5013;51.840;8.276;2023-04-03T05:57:47;5.90;;;2.40;;
9948;SDS011;5013;51.840;8.276;2023-04-03T06:00:13;7.17;;;4.07;;
9948;SDS011;5013;51.840;8.276;2023-04-03T06:02:42;4.47;;;2.40;;
9948;SDS011;5013;51.840;8.276;2023-04-03T06:05:08;12.60;;;2.60;;
9948;SDS011;5013;51.840;8.276;2023-04-03T06:07:36;7.13;;;2.60;;
9948;SDS011;5013;51.840;8.276;2023-04-03T06:10:02;9.63;;;2.73;;
9948;SDS011;5013;51.840;8.276;2023-04-03T06:12:28;3.43;;;2.23;;
9948;SDS011;5013;51.840;8.276;2023-04-03T06:14:54;9.53;;;2.67;;
9948;SDS011;5013;51.840;8.276;2023-04-03T06:17:20;7.83;;;2.73;;
9948;SDS011;5013;51.840;8.276;2023-04-03T06:19:46;4.33;;;2.30;;
9948;SDS011;5013;51.840;8.276;2023-04-03T06:22:12;8.40;;;2.57;;
9948;SDS011;5013;51.840;8.276;2023-04-03T06:24:39;4.43;;;2.70;;
9948;SDS011;5013;51.840;8.276;2023-04-03T06:27:05;4.73;;;2.53;;
9948;SDS011;5013;51.840;8.276;2023-04-03T06:29:30;8.20;;;2.53;;
9948;SDS011;5013;51.840;8.276;2023-04-03T06:31:56;12.37;;;3.27;;
9948;SDS011;5013;51.840;8.276;2023-04-03T06:34:22;6.13;;;2.63;;
9948;SDS011;5013;51.840;8.276;2023-04-03T06:36:47;7.40;;;2.80;;
9948;SDS011;5013;51.840;8.276;2023-04-03T06:39:22;5.47;;;2.47;;
9948;SDS011;5013;51.840;8.276;2023-04-03T06:41:49;8.53;;;3.07;;
9948;SDS011;5013;51.840;8.276;2023-04-03T06:44:15;6.23;;;2.50;;
9948;SDS011;5013;51.840;8.276;2023-04-03T06:46:41;6.70;;;2.63;;
9948;SDS011;5013;51.840;8.276;2023-04-03T06:49:08;8.20;;;2.87;;
9948;SDS011;5013;51.840;8.276;2023-04-03T06:51:34;7.67;;;2.53;;
9948;SDS011;5013;51.840;8.276;2023-04-03T06:54:04;9.57;;;3.00;;
9948;SDS011;5013;51.840;8.276;2023-04-03T06:56:31;7.13;;;3.10;;
9948;SDS011;5013;51.840;8.276;2023-04-03T06:58:57;5.83;;;2.30;;
9948;SDS011;5013;51.840;8.276;2023-04-03T07:01:25;9.57;;;3.27;;
9948;SDS011;5013;51.840;8.276;2023-04-03T07:03:55;5.60;;;2.60;;
9948;SDS011;5013;51.840;8.276;2023-04-03T07:06:21;7.83;;;2.37;;
9948;SDS011;5013;51.840;8.276;2023-04-03T07:08:48;4.67;;;2.60;;
9948;SDS011;5013;51.840;8.276;2023-04-03T07:11:14;7.53;;;2.70;;
9948;SDS011;5013;51.840;8.276;2023-04-03T07:13:40;4.77;;;2.37;;
9948;SDS011;5013;51.840;8.276;2023-04-03T07:16:06;4.87;;;2.40;;
9948;SDS011;5013;51.840;8.276;2023-04-03T07:18:32;4.53;;;2.37;;
9948;SDS011;5013;51.840;8.276;2023-04-03T07:20:58;7.43;;;2.60;;
9948;SDS011;5013;51.840;8.276;2023-04-03T07:23:24;6.97;;;3.13;;
9948;SDS011;5013;51.840;8.276;2023-04-03T07:25:51;4.20;;;2.50;;
9948;SDS011;5013;51.840;8.276;2023-04-03T07:28:17;5.10;;;2.83;;
9948;SDS011;5013;51.840;8.276;2023-04-03T07:33:10;5.33;;;2.57;;
9948;SDS011;5013;51.840;8.276;2023-04-03T07:35:37;8.93;;;2.60;;
9948;SDS011;5013;51.840;8.276;2023-04-03T07:38:02;6.80;;;2.50;;
9948;SDS011;5013;51.840;8.276;2023-04-03T07:40:28;6.20;;;2.60;;
9948;SDS011;5013;51.840;8.276;2023-04-03T07:42:53;9.30;;;2.63;;
9948;SDS011;5013;51.840;8.276;2023-04-03T07:45:21;7.20;;;2.50;;
9948;SDS011;5013;51.840;8.276;2023-04-03T07:47:47;5.47;;;2.00;;
9948;SDS011;5013;51.840;8.276;2023-04-03T07:50:13;4.43;;;2.23;;
9948;SDS011;5013;51.840;8.276;2023-04-03T07:52:39;3.47;;;2.20;;
9948;SDS011;5013;51.840;8.276;2023-04-03T07:55:05;5.23;;;2.33;;
9948;SDS011;5013;51.840;8.276;2023-04-03T07:57:31;3.37;;;2.13;;
9948;SDS011;5013;51.840;8.276;2023-04-03T07:59:57;5.53;;;2.10;;
9948;SDS011;5013;51.840;8.276;2023-04-03T08:02:22;7.73;;;2.23;;
9948;SDS011;5013;51.840;8.276;2023-04-03T08:04:48;4.27;;;2.57;;
9948;SDS011;5013;51.840;8.276;2023-04-03T08:07:13;6.30;;;2.53;;
9948;SDS011;5013;51.840;8.276;2023-04-03T08:09:39;7.20;;;2.10;;
9948;SDS011;5013;51.840;8.276;2023-04-03T08:12:05;3.43;;;1.70;;
9948;SDS011;5013;51.840;8.276;2023-04-03T08:14:31;7.07;;;2.00;;
9948;SDS011;5013;51.840;8.276;2023-04-03T08:16:59;2.30;;;2.03;;
9948;SDS011;5013;51.840;8.276;2023-04-03T08:19:25;3.60;;;1.50;;
9948;SDS011;5013;51.840;8.276;2023-04-03T08:21:52;6.03;;;1.90;;
9948;SDS011;5013;51.840;8.276;2023-04-03T08:24:19;4.57;;;1.67;;
9948;SDS011;5013;51.840;8.276;2023-04-03T08:26:45;3.83;;;1.70;;
9948;SDS011;5013;51.840;8.276;2023-04-03T08:29:10;4.93;;;2.10;;
9948;SDS011;5013;51.840;8.276;2023-04-03T08:31:36;2.77;;;1.67;;
9948;SDS011;5013;51.840;8.276;2023-04-03T08:34:02;3.90;;;1.60;;
9948;SDS011;5013;51.840;8.276;2023-04-03T08:36:28;4.60;;;1.67;;
9948;SDS011;5013;51.840;8.276;2023-04-03T08:38:54;1.60;;;1.50;;
9948;SDS011;5013;51.840;8.276;2023-04-03T08:44:03;6.40;;;1.97;;
9948;SDS011;5013;51.840;8.276;2023-04-03T08:49:24;3.73;;;1.53;;
9948;SDS011;5013;51.840;8.276;2023-04-03T08:52:08;3.93;;;1.63;;
9948;SDS011;5013;51.840;8.276;2023-04-03T08:54:41;3.57;;;1.40;;
9948;SDS011;5013;51.840;8.276;2023-04-03T08:57:20;2.67;;;1.33;;
9948;SDS011;5013;51.840;8.276;2023-04-03T08:59:53;1.40;;;1.30;;
9948;SDS011;5013;51.840;8.276;2023-04-03T09:04:52;1.40;;;1.23;;
9948;SDS011;5013;51.840;8.276;2023-04-03T09:07:39;2.13;;;1.37;;
9948;SDS011;5013;51.840;8.276;2023-04-03T09:10:10;3.43;;;1.50;;
9948;SDS011;5013;51.840;8.276;2023-04-03T09:12:41;1.90;;;1.23;;
9948;SDS011;5013;51.840;8.276;2023-04-03T09:17:53;2.23;;;1.53;;
9948;SDS011;5013;51.840;8.276;2023-04-03T09:23:24;1.50;;;1.30;;
9948;SDS011;5013;51.840;8.276;2023-04-03T09:26:08;2.17;;;1.43;;
9948;SDS011;5013;51.840;8.276;2023-04-03T09:28:46;1.90;;;1.30;;
9948;SDS011;5013;51.840;8.276;2023-04-03T09:31:17;4.13;;;1.60;;
9948;SDS011;5013;51.840;8.276;2023-04-03T09:33:58;4.90;;;1.63;;
9948;SDS011;5013;51.840;8.276;2023-04-03T09:39:25;4.67;;;1.90;;
9948;SDS011;5013;51.840;8.276;2023-04-03T09:41:56;3.10;;;1.37;;
9948;SDS011;5013;51.840;8.276;2023-04-03T09:44:23;5.40;;;1.67;;
9948;SDS011;5013;51.840;8.276;2023-04-03T09:46:53;2.93;;;1.50;;
9948;SDS011;5013;51.840;8.276;2023-04-03T09:49:19;5.03;;;1.80;;
9948;SDS011;5013;51.840;8.276;2023-04-03T09:51:45;6.63;;;1.50;;
9948;SDS011;5013;51.840;8.276;2023-04-03T09:56:54;2.90;;;1.33;;
9948;SDS011;5013;51.840;8.276;2023-04-03T09:59:22;4.93;;;1.20;;
9948;SDS011;5013;51.840;8.276;2023-04-03T10:01:58;3.30;;;1.53;;
9948;SDS011;5013;51.840;8.276;2023-04-03T10:04:25;4.77;;;1.63;;
9948;SDS011;5013;51.840;8.276;2023-04-03T10:07:02;4.70;;;1.33;;
9948;SDS011;5013;51.840;8.276;2023-04-03T10:09:29;3.77;;;1.47;;
9948;SDS011;5013;51.840;8.276;2023-04-03T10:11:57;2.77;;;1.70;;
9948;SDS011;5013;51.840;8.276;2023-04-03T10:14:36;3.10;;;1.50;;
9948;SDS011;5013;51.840;8.276;2023-04-03T10:20:26;4.07;;;2.03;;
9948;SDS011;5013;51.840;8.276;2023-04-03T10:23:22;4.70;;;2.13;;
9948;SDS011;5013;51.840;8.276;2023-04-03T10:26:02;3.07;;;1.60;;
9948;SDS011;5013;51.840;8.276;2023-04-03T10:34:41;3.70;;;1.40;;
9948;SDS011;5013;51.840;8.276;2023-04-03T10:40:14;2.53;;;1.30;;
9948;SDS011;5013;51.840;8.276;2023-04-03T10:42:56;3.77;;;1.27;;
9948;SDS011;5013;51.840;8.276;2023-04-03T10:48:31;4.03;;;1.60;;
9948;SDS011;5013;51.840;8.276;2023-04-03T10:51:23;3.90;;;1.30;;
9948;SDS011;5013;51.840;8.276;2023-04-03T10:54:04;2.93;;;1.37;;
9948;SDS011;5013;51.840;8.276;2023-04-03T10:56:40;2.43;;;1.30;;
9948;SDS011;5013;51.840;8.276;2023-04-03T11:04:48;3.57;;;1.80;;
9948;SDS011;5013;51.840;8.276;2023-04-03T11:07:26;1.77;;;1.47;;
9948;SDS011;5013;51.840;8.276;2023-04-03T11:10:02;1.90;;;1.47;;
9948;SDS011;5013;51.840;8.276;2023-04-03T11:15:11;2.87;;;1.43;;
9948;SDS011;5013;51.840;8.276;2023-04-03T11:17:41;2.70;;;1.40;;
9948;SDS011;5013;51.840;8.276;2023-04-03T11:20:21;2.80;;;1.60;;
9948;SDS011;5013;51.840;8.276;2023-04-03T11:23:31;2.67;;;1.70;;
9948;SDS011;5013;51.840;8.276;2023-04-03T11:25:51;2.43;;;1.57;;
9948;SDS011;5013;51.840;8.276;2023-04-03T11:28:21;7.00;;;1.73;;
9948;SDS011;5013;51.840;8.276;2023-04-03T11:36:33;4.23;;;1.70;;
9948;SDS011;5013;51.840;8.276;2023-04-03T11:39:18;1.60;;;1.30;;
9948;SDS011;5013;51.840;8.276;2023-04-03T11:41:50;3.03;;;1.37;;
9948;SDS011;5013;51.840;8.276;2023-04-03T11:47:11;2.00;;;1.20;;
9948;SDS011;5013;51.840;8.276;2023-04-03T11:57:46;3.60;;;1.60;;
9948;SDS011;5013;51.840;8.276;2023-04-03T12:14:00;2.77;;;1.73;;
9948;SDS011;5013;51.840;8.276;2023-04-03T12:16:30;5.63;;;1.70;;
9948;SDS011;5013;51.840;8.276;2023-04-03T12:24:24;5.23;;;1.90;;
9948;SDS011;5013;51.840;8.276;2023-04-03T12:40:21;5.67;;;1.77;;
9948;SDS011;5013;51.840;8.276;2023-04-03T12:48:16;3.00;;;1.53;;
9948;SDS011;5013;51.840;8.276;2023-04-03T12:50:46;2.50;;;1.50;;
9948;SDS011;5013;51.840;8.276;2023-04-03T12:53:13;1.57;;;1.47;;
9948;SDS011;5013;51.840;8.276;2023-04-03T12:55:47;2.50;;;1.90;;
9948;SDS011;5013;51.840;8.276;2023-04-03T13:03:35;3.33;;;1.70;;
9948;SDS011;5013;51.840;8.276;2023-04-03T13:06:06;3.50;;;1.50;;
9948;SDS011;5013;51.840;8.276;2023-04-03T13:08:32;3.53;;;1.70;;
9948;SDS011;5013;51.840;8.276;2023-04-03T13:10:59;3.43;;;1.90;;
9948;SDS011;5013;51.840;8.276;2023-04-03T13:13:28;2.07;;;1.40;;
9948;SDS011;5013;51.840;8.276;2023-04-03T13:15:54;2.10;;;1.70;;
9948;SDS011;5013;51.840;8.276;2023-04-03T13:20:53;2.27;;;1.63;;
9948;SDS011;5013;51.840;8.276;2023-04-03T13:23:24;3.20;;;1.80;;
9948;SDS011;5013;51.840;8.276;2023-04-03T13:25:50;2.53;;;1.70;;
9948;SDS011;5013;51.840;8.276;2023-04-03T13:28:20;2.07;;;1.50;;
9948;SDS011;5013;51.840;8.276;2023-04-03T13:30:56;3.00;;;1.93;;
9948;SDS011;5013;51.840;8.276;2023-04-03T13:33:32;4.10;;;1.93;;
9948;SDS011;5013;51.840;8.276;2023-04-03T13:36:04;1.80;;;1.50;;
9948;SDS011;5013;51.840;8.276;2023-04-03T13:38:42;3.53;;;1.87;;
9948;SDS011;5013;51.840;8.276;2023-04-03T13:41:25;3.17;;;1.70;;
9948;SDS011;5013;51.840;8.276;2023-04-03T13:43:55;3.00;;;1.77;;
9948;SDS011;5013;51.840;8.276;2023-04-03T13:46:22;3.37;;;2.37;;
9948;SDS011;5013;51.840;8.276;2023-04-03T13:48:51;3.23;;;2.07;;
9948;SDS011;5013;51.840;8.276;2023-04-03T13:51:24;2.03;;;1.60;;
9948;SDS011;5013;51.840;8.276;2023-04-03T13:54:00;3.27;;;1.73;;
9948;SDS011;5013;51.840;8.276;2023-04-03T13:56:38;2.00;;;1.90;;
9948;SDS011;5013;51.840;8.276;2023-04-03T14:04:20;1.97;;;1.77;;
9948;SDS011;5013;51.840;8.276;2023-04-03T14:06:51;2.43;;;1.60;;
9948;SDS011;5013;51.840;8.276;2023-04-03T14:09:18;2.83;;;2.37;;
9948;SDS011;5013;51.840;8.276;2023-04-03T14:11:45;7.97;;;4.50;;
9948;SDS011;5013;51.840;8.276;2023-04-03T14:14:17;3.20;;;1.80;;
9948;SDS011;5013;51.840;8.276;2023-04-03T14:16:47;3.63;;;2.00;;
9948;SDS011;5013;51.840;8.276;2023-04-03T14:19:21;3.37;;;2.17;;
9948;SDS011;5013;51.840;8.276;2023-04-03T14:21:49;2.30;;;1.70;;
9948;SDS011;5013;51.840;8.276;2023-04-03T14:24:15;2.57;;;2.10;;
9948;SDS011;5013;51.840;8.276;2023-04-03T14:26:41;1.80;;;1.70;;
9948;SDS011;5013;51.840;8.276;2023-04-03T14:29:09;2.27;;;1.80;;
9948;SDS011;5013;51.840;8.276;2023-04-03T14:31:36;1.70;;;1.40;;
9948;SDS011;5013;51.840;8.276;2023-04-03T14:34:01;5.97;;;1.73;;
9948;SDS011;5013;51.840;8.276;2023-04-03T14:36:28;1.80;;;1.53;;
9948;SDS011;5013;51.840;8.276;2023-04-03T14:38:54;4.37;;;1.87;;
9948;SDS011;5013;51.840;8.276;2023-04-03T14:41:21;4.20;;;1.60;;
9948;SDS011;5013;51.840;8.276;2023-04-03T14:43:48;3.33;;;1.80;;
9948;SDS011;5013;51.840;8.276;2023-04-03T14:46:16;1.80;;;1.70;;
9948;SDS011;5013;51.840;8.276;2023-04-03T14:48:51;3.70;;;1.93;;
9948;SDS011;5013;51.840;8.276;2023-04-03T14:51:16;6.73;;;1.77;;
9948;SDS011;5013;51.840;8.276;2023-04-03T14:53:42;2.77;;;1.80;;
9948;SDS011;5013;51.840;8.276;2023-04-03T14:56:14;1.90;;;1.70;;
9948;SDS011;5013;51.840;8.276;2023-04-03T14:58:43;1.73;;;1.60;;
9948;SDS011;5013;51.840;8.276;2023-04-03T15:01:09;1.70;;;1.60;;
9948;SDS011;5013;51.840;8.276;2023-04-03T15:03:36;1.93;;;1.60;;
9948;SDS011;5013;51.840;8.276;2023-04-03T15:06:02;3.83;;;1.70;;
9948;SDS011;5013;51.840;8.276;2023-04-03T15:08:28;2.77;;;1.60;;
9948;SDS011;5013;51.840;8.276;2023-04-03T15:10:55;2.73;;;1.70;;
9948;SDS011;5013;51.840;8.276;2023-04-03T15:13:21;2.90;;;1.60;;
9948;SDS011;5013;51.840;8.276;2023-04-03T15:15:48;2.23;;;1.70;;
9948;SDS011;5013;51.840;8.276;2023-04-03T15:18:19;3.30;;;2.07;;
9948;SDS011;5013;51.840;8.276;2023-04-03T15:20:47;2.60;;;1.60;;
9948;SDS011;5013;51.840;8.276;2023-04-03T15:23:13;2.20;;;1.67;;
9948;SDS011;5013;51.840;8.276;2023-04-03T15:25:41;2.40;;;2.20;;
9948;SDS011;5013;51.840;8.276;2023-04-03T15:28:25;5.53;;;2.40;;
9948;SDS011;5013;51.840;8.276;2023-04-03T15:30:53;2.13;;;2.00;;
9948;SDS011;5013;51.840;8.276;2023-04-03T15:33:19;2.10;;;1.90;;
9948;SDS011;5013;51.840;8.276;2023-04-03T15:35:45;4.87;;;1.90;;
9948;SDS011;5013;51.840;8.276;2023-04-03T15:38:11;4.67;;;2.00;;
9948;SDS011;5013;51.840;8.276;2023-04-03T15:40:37;1.87;;;1.73;;
9948;SDS011;5013;51.840;8.276;2023-04-03T15:43:02;1.90;;;1.70;;
9948;SDS011;5013;51.840;8.276;2023-04-03T15:45:29;2.23;;;1.60;;
9948;SDS011;5013;51.840;8.276;2023-04-03T15:47:56;2.23;;;1.70;;
9948;SDS011;5013;51.840;8.276;2023-04-03T15:50:23;2.03;;;1.53;;
9948;SDS011;5013;51.840;8.276;2023-04-03T15:52:49;2.43;;;1.63;;
9948;SDS011;5013;51.840;8.276;2023-04-03T15:55:19;4.00;;;1.70;;
9948;SDS011;5013;51.840;8.276;2023-04-03T15:57:48;4.13;;;1.60;;
9948;SDS011;5013;51.840;8.276;2023-04-03T16:00:14;3.40;;;1.80;;
9948;SDS011;5013;51.840;8.276;2023-04-03T16:02:40;6.23;;;1.90;;
9948;SDS011;5013;51.840;8.276;2023-04-03T16:05:08;2.30;;;1.80;;
9948;SDS011;5013;51.840;8.276;2023-04-03T16:07:36;5.53;;;1.83;;
9948;SDS011;5013;51.840;8.276;2023-04-03T16:10:04;1.80;;;1.40;;
9948;SDS011;5013;51.840;8.276;2023-04-03T16:12:30;1.67;;;1.57;;
9948;SDS011;5013;51.840;8.276;2023-04-03T16:14:55;2.07;;;1.60;;
9948;SDS011;5013;51.840;8.276;2023-04-03T16:17:21;1.57;;;1.47;;
9948;SDS011;5013;51.840;8.276;2023-04-03T16:19:47;3.90;;;1.60;;
9948;SDS011;5013;51.840;8.276;2023-04-03T16:22:12;2.30;;;1.73;;
9948;SDS011;5013;51.840;8.276;2023-04-03T16:24:38;3.07;;;1.60;;
9948;SDS011;5013;51.840;8.276;2023-04-03T16:27:04;1.80;;;1.60;;
9948;SDS011;5013;51.840;8.276;2023-04-03T16:29:29;1.23;;;1.20;;
9948;SDS011;5013;51.840;8.276;2023-04-03T16:31:56;12.23;;;1.73;;
9948;SDS011;5013;51.840;8.276;2023-04-03T16:34:23;2.57;;;1.47;;
9948;SDS011;5013;51.840;8.276;2023-04-03T16:36:50;1.73;;;1.57;;
9948;SDS011;5013;51.840;8.276;2023-04-03T16:39:17;3.97;;;1.63;;
9948;SDS011;5013;51.840;8.276;2023-04-03T16:41:43;4.80;;;1.70;;
9948;SDS011;5013;51.840;8.276;2023-04-03T16:44:10;8.27;;;3.97;;
9948;SDS011;5013;51.840;8.276;2023-04-03T16:46:36;12.30;;;6.27;;
9948;SDS011;5013;51.840;8.276;2023-04-03T16:49:02;5.77;;;2.90;;
9948;SDS011;5013;51.840;8.276;2023-04-03T16:51:28;4.97;;;2.37;;
9948;SDS011;5013;51.840;8.276;2023-04-03T16:53:53;5.90;;;1.87;;
9948;SDS011;5013;51.840;8.276;2023-04-03T16:56:19;4.77;;;1.73;;
9948;SDS011;5013;51.840;8.276;2023-04-03T16:58:45;4.00;;;1.70;;
9948;SDS011;5013;51.840;8.276;2023-04-03T17:01:11;1.93;;;1.50;;
9948;SDS011;5013;51.840;8.276;2023-04-03T17:03:39;6.03;;;1.90;;
9948;SDS011;5013;51.840;8.276;2023-04-03T17:06:05;3.07;;;1.80;;
9948;SDS011;5013;51.840;8.276;2023-04-03T17:08:30;3.87;;;2.03;;
9948;SDS011;5013;51.840;8.276;2023-04-03T17:10:56;2.57;;;2.23;;
9948;SDS011;5013;51.840;8.276;2023-04-03T17:13:22;2.97;;;2.70;;
9948;SDS011;5013;51.840;8.276;2023-04-03T17:15:47;6.13;;;2.47;;
9948;SDS011;5013;51.840;8.276;2023-04-03T17:18:13;2.83;;;1.70;;
9948;SDS011;5013;51.840;8.276;2023-04-03T17:20:39;5.23;;;1.90;;